Terminal Aerodrome Forecast
Issued by NWS

Current Version | Previous Version | Text Only | Print | Product List | Glossary Off
Versions: 1 2 3 4 5 6 7 8 9 10 11 12 13 14 15 16 17 18 19 20 21 22 23

000
FTUS41 KRLX 260200 AAA
TAFCKB
TAF AMD
KCKB 260243Z 2603/2624 VRB03KT 2SM -RA BR BKN040 OVC070
     FM260500 VRB03KT 3SM -RAPL BR OVC040
     FM260700 VRB03KT 2SM -RASN BR OVC020
     FM261000 VRB03KT 2SM -SN BR OVC010
     FM261300 09004KT 2SM -RASN BR OVC006=

USA.gov is the U.S. government's official web portal to all federal, state and local government web resources and services.